地図

経路データ

SID SEASON NUMBER BASIN SUBBASIN NAME ISO_TIME NATURE LAT LON WMO_WIND WMO_PRES WMO_AGENCY TRACK_TYPE DIST2LAND LANDFALL IFLAG USA_AGENCY USA_ATCF_ID USA_LAT USA_LON USA_RECORD USA_STATUS USA_WIND USA_PRES USA_SSHS USA_R34_NE USA_R34_SE USA_R34_SW USA_R34_NW USA_R50_NE USA_R50_SE USA_R50_SW USA_R50_NW USA_R64_NE USA_R64_SE USA_R64_SW USA_R64_NW USA_POCI USA_ROCI USA_RMW USA_EYE TOKYO_LAT TOKYO_LON TOKYO_GRADE TOKYO_WIND TOKYO_PRES TOKYO_R50_DIR TOKYO_R50_LONG TOKYO_R50_SHORT TOKYO_R30_DIR TOKYO_R30_LONG TOKYO_R30_SHORT TOKYO_LAND CMA_LAT CMA_LON CMA_CAT CMA_WIND CMA_PRES HKO_LAT HKO_LON HKO_CAT HKO_WIND HKO_PRES NEWDELHI_LAT NEWDELHI_LON NEWDELHI_GRADE NEWDELHI_WIND NEWDELHI_PRES NEWDELHI_CI NEWDELHI_DP NEWDELHI_POCI REUNION_LAT REUNION_LON REUNION_TYPE REUNION_WIND REUNION_PRES REUNION_TNUM REUNION_CI REUNION_RMW REUNION_R34_NE REUNION_R34_SE REUNION_R34_SW REUNION_R34_NW REUNION_R50_NE REUNION_R50_SE REUNION_R50_SW REUNION_R50_NW REUNION_R64_NE REUNION_R64_SE REUNION_R64_SW REUNION_R64_NW BOM_LAT BOM_LON BOM_TYPE BOM_WIND BOM_PRES BOM_TNUM BOM_CI BOM_RMW BOM_R34_NE BOM_R34_SE BOM_R34_SW BOM_R34_NW BOM_R50_NE BOM_R50_SE BOM_R50_SW BOM_R50_NW BOM_R64_NE BOM_R64_SE BOM_R64_SW BOM_R64_NW BOM_ROCI BOM_POCI BOM_EYE BOM_POS_METHOD BOM_PRES_METHOD NADI_LAT NADI_LON NADI_CAT NADI_WIND NADI_PRES WELLINGTON_LAT WELLINGTON_LON WELLINGTON_WIND WELLINGTON_PRES DS824_LAT DS824_LON DS824_STAGE DS824_WIND DS824_PRES TD9636_LAT TD9636_LON TD9636_STAGE TD9636_WIND TD9636_PRES TD9635_LAT TD9635_LON TD9635_WIND TD9635_PRES TD9635_ROCI NEUMANN_LAT NEUMANN_LON NEUMANN_CLASS NEUMANN_WIND NEUMANN_PRES MLC_LAT MLC_LON MLC_CLASS MLC_WIND MLC_PRES USA_GUST BOM_GUST BOM_GUST_PER REUNION_GUST REUNION_GUST_PER USA_SEAHGT USA_SEARAD_NE USA_SEARAD_SE USA_SEARAD_SW USA_SEARAD_NW STORM_SPEED STORM_DIR
1987300N10239 1987 90 EP MM SELMA 1987-10-27 00:00:00 TS 9.50000 -121.200 25 hurdat_epa main 1916 1916 O_________O___ hurdat_epa EP181987 9.50000 -121.200 TD 25 -1 9.50000 -121.200 1 25 12 286
1987300N10239 1987 90 EP MM SELMA 1987-10-27 03:00:00 TS 9.67531 -121.805 main 1939 1939 P_________P___ EP181987 9.66512 -121.790 TD 27 -1 9.70587 -121.850 1 26 13 289
1987300N10239 1987 90 EP MM SELMA 1987-10-27 06:00:00 TS 9.91221 -122.420 30 hurdat_epa main 1963 1962 O_________P___ hurdat_epa EP181987 9.90000 -122.400 TD 30 -1 9.94883 -122.480 1 27 14 296
1987300N10239 1987 90 EP MM SELMA 1987-10-27 09:00:00 TS 10.2581 -123.040 main 1974 1974 P_________P___ EP181987 10.2550 -123.030 TD 30 -1 10.2673 -123.070 1 28 14 304
1987300N10239 1987 90 EP MM SELMA 1987-10-27 12:00:00 TS 10.7000 -123.600 30 hurdat_epa main 1981 1972 O_________O___ hurdat_epa EP181987 10.7000 -123.600 TD 30 -1 10.7000 -123.600 1 30 14 313
1987300N10239 1987 90 EP MM SELMA 1987-10-27 15:00:00 TS 11.1722 -124.047 main 1963 1947 P_________P___ EP181987 11.1399 -124.045 TD 32 -1 11.2693 -124.054 1 31 13 323
1987300N10239 1987 90 EP MM SELMA 1987-10-27 18:00:00 TS 11.7580 -124.409 35 hurdat_epa main 1939 1901 O_________P___ hurdat_epa EP181987 11.7000 -124.400 TS 35 0 11.9321 -124.434 1 32 15 333
1987300N10239 1987 90 EP MM SELMA 1987-10-27 21:00:00 TS 12.5266 -124.740 main 1901 1858 P_________P___ EP181987 12.4925 -124.737 TS 35 0 12.6289 -124.748 1 33 17 339
1987300N10239 1987 90 EP MM SELMA 1987-10-28 00:00:00 TS 13.3000 -125.000 35 hurdat_epa main 1858 1827 O_________O___ hurdat_epa EP181987 13.3000 -125.000 TS 35 0 13.3000 -125.000 2 35 14 342
1987300N10239 1987 90 EP MM SELMA 1987-10-28 03:00:00 TS 13.8914 -125.185 main 1827 1796 P_________P___ EP181987 13.8949 -125.173 TS 35 0 13.8809 -125.220 2 35 12 344
1987300N10239 1987 90 EP MM SELMA 1987-10-28 06:00:00 TS 14.4061 -125.321 35 hurdat_epa main 1796 1774 O_________P___ hurdat_epa EP181987 14.4000 -125.300 TS 35 0 14.4246 -125.383 2 35 11 345
1987300N10239 1987 90 EP MM SELMA 1987-10-28 09:00:00 TS 14.9134 -125.469 main 1775 1748 P_________P___ EP181987 14.9075 -125.458 TS 35 0 14.9310 -125.505 2 35 10 345
1987300N10239 1987 90 EP MM SELMA 1987-10-28 12:00:00 TS 15.4000 -125.600 35 hurdat_epa main 1748 1718 O_________O___ hurdat_epa EP181987 15.4000 -125.600 TS 35 0 15.4000 -125.600 2 35 10 347
1987300N10239 1987 90 EP MM SELMA 1987-10-28 15:00:00 TS 15.9095 -125.714 main 1718 1690 P_________P___ EP181987 15.9300 -125.715 TS 32 -1 15.8480 -125.709 2 33 10 349
1987300N10239 1987 90 EP MM SELMA 1987-10-28 18:00:00 TS 16.3650 -125.799 30 hurdat_epa main 1681 1655 O_________P___ hurdat_epa EP181987 16.4000 -125.800 TD 30 -1 16.2599 -125.795 2 32 8 350
1987300N10239 1987 90 EP MM SELMA 1987-10-28 21:00:00 TS 16.7079 -125.858 main 1662 1637 P_________P___ EP181987 16.7300 -125.858 TD 30 -1 16.6418 -125.859 2 31 6 351
1987300N10239 1987 90 EP MM SELMA 1987-10-29 00:00:00 TS 17.0000 -125.900 30 hurdat_epa main 1637 1612 O_________O___ hurdat_epa EP181987 17.0000 -125.900 TD 30 -1 17.0000 -125.900 1 30 6 351
1987300N10239 1987 90 EP MM SELMA 1987-10-29 03:00:00 TS 17.3030 -125.955 main 1619 1594 P_________P___ EP181987 17.2925 -125.965 TD 30 -1 17.3343 -125.926 1 30 6 352
1987300N10239 1987 90 EP MM SELMA 1987-10-29 06:00:00 TS 17.6125 -125.983 30 hurdat_epa main 1594 1570 O_________P___ hurdat_epa EP181987 17.6000 -126.000 TD 30 -1 17.6500 -125.930 1 30 6 0
1987300N10239 1987 90 EP MM SELMA 1987-10-29 09:00:00 TS 17.9427 -125.948 main 1562 1530 P_________P___ EP181987 17.9350 -125.958 TD 30 -1 17.9656 -125.919 1 30 7 7
1987300N10239 1987 90 EP MM SELMA 1987-10-29 12:00:00 TS 18.3000 -125.900 30 hurdat_epa main 1530 1499 O_________O___ hurdat_epa EP181987 18.3000 -125.900 TD 30 -1 18.3000 -125.900 1 30 8 3
1987300N10239 1987 90 EP MM SELMA 1987-10-29 15:00:00 TS 18.6889 -125.906 main 1499 1468 P_________P___ EP181987 18.6925 -125.900 TD 32 -1 18.6783 -125.926 1 31 8 0
1987300N10239 1987 90 EP MM SELMA 1987-10-29 18:00:00 TS 19.0943 -125.910 35 hurdat_epa main 1468 1438 O_________P___ hurdat_epa EP181987 19.1000 -125.900 TS 35 0 19.0772 -125.939 1 32 8 0
1987300N10239 1987 90 EP MM SELMA 1987-10-29 21:00:00 TS 19.4969 -125.887 main 1438 1400 P_________P___ EP181987 19.5000 -125.880 TS 35 0 19.4875 -125.907 1 33 8 8
1987300N10239 1987 90 EP MM SELMA 1987-10-30 00:00:00 TS 19.9000 -125.800 35 hurdat_epa main 1400 1356 O_________O___ hurdat_epa EP181987 19.9000 -125.800 TS 35 0 19.9000 -125.800 2 35 8 16
1987300N10239 1987 90 EP MM SELMA 1987-10-30 03:00:00 TS 20.2990 -125.634 main 1356 1311 P_________P___ EP181987 20.2999 -125.652 TS 32 -1 20.2962 -125.580 2 32 9 27
1987300N10239 1987 90 EP MM SELMA 1987-10-30 06:00:00 TS 20.6982 -125.371 30 hurdat_epa main 1311 1251 O_________P___ hurdat_epa EP181987 20.7000 -125.400 TD 30 -1 20.6929 -125.283 2 30 10 36
1987300N10239 1987 90 EP MM SELMA 1987-10-30 09:00:00 TS 21.0984 -125.003 main 1251 1191 P_________P___ EP181987 21.1001 -125.023 TD 27 -1 21.0931 -124.945 2 27 11 42
1987300N10239 1987 90 EP MM SELMA 1987-10-30 12:00:00 TS 21.5000 -124.600 25 hurdat_epa main 1191 1139 O_________O___ hurdat_epa EP181987 21.5000 -124.600 TD 25 -1 21.5000 -124.600 1 25 11 41
1987300N10239 1987 90 EP MM SELMA 1987-10-30 15:00:00 TS 21.8975 -124.245 main 1131 1079 P_________P___ EP181987 21.8925 -124.227 TD 25 -1 21.9125 -124.300 1 25 10 38
1987300N10239 1987 90 EP MM SELMA 1987-10-30 18:00:00 TS 22.3082 -123.925 25 hurdat_epa main 1079 1037 O_________P___ hurdat_epa EP181987 22.3000 -123.900 TD 25 -1 22.3328 -123.999 1 25 10 33
1987300N10239 1987 90 EP MM SELMA 1987-10-30 21:00:00 TS 22.7472 -123.657 main 1037 980 P_________P___ EP181987 22.7423 -123.642 TD 25 -1 22.7617 -123.700 1 25 10 29
1987300N10239 1987 90 EP MM SELMA 1987-10-31 00:00:00 TS 23.2000 -123.400 25 hurdat_epa main 980 931 O_________O___ hurdat_epa EP181987 23.2000 -123.400 TD 25 -1 23.2000 -123.400 1 25 10 29
1987300N10239 1987 90 EP MM SELMA 1987-10-31 03:00:00 TS 23.6514 -123.112 main 925 876 P_________P___ EP181987 23.6527 -123.116 TD 22 -1 23.6476 -123.100 1 22 11 31
1987300N10239 1987 90 EP MM SELMA 1987-10-31 06:00:00 TS 24.1000 -122.800 20 hurdat_epa main 876 O_________O___ hurdat_epa EP181987 24.1000 -122.800 TD 20 -1 24.1000 -122.800 1 20 11 33

IBTrACS Databaseについて

本データベースは、米国NOAAが公開する1842年以降の世界の熱帯低気圧のベストトラックデータアーカイブInternational Best Track Archive for Climate Stewardship (IBTrACS)を、ウェブで閲覧しやすい形式に変換したものです。

最終更新日:2021-11-26